createdAt,value
2022-11-09T00:01:50.458Z,31.17
2022-11-09T00:03:56.503Z,26.10
2022-11-09T00:05:58.428Z,31.67
2022-11-09T00:07:59.885Z,34.20
2022-11-09T00:10:01.730Z,23.80
2022-11-09T00:12:04.905Z,25.23
2022-11-09T00:14:06.393Z,21.20
2022-11-09T00:16:08.644Z,28.83
2022-11-09T00:18:10.072Z,32.53
2022-11-09T00:20:11.581Z,19.30
2022-11-09T00:22:12.999Z,23.98
2022-11-09T00:24:14.675Z,24.40
2022-11-09T00:26:17.198Z,23.90
2022-11-09T00:28:18.685Z,20.33
2022-11-09T00:30:20.234Z,27.25
2022-11-09T00:32:26.614Z,27.17
2022-11-09T00:34:29.182Z,30.50
2022-11-09T00:36:30.867Z,34.03
2022-11-09T00:38:32.318Z,31.17
2022-11-09T00:40:34.253Z,18.58
2022-11-09T00:42:35.732Z,29.10
2022-11-09T00:44:37.326Z,19.42
2022-11-09T00:46:38.881Z,30.83
2022-11-09T00:48:40.686Z,32.95
2022-11-09T00:50:42.151Z,30.70
2022-11-09T00:52:43.675Z,39.60
2022-11-09T00:54:45.093Z,20.30
2022-11-09T00:56:46.692Z,40.58
2022-11-09T00:58:51.922Z,40.97
2022-11-09T01:00:53.731Z,26.55
2022-11-09T01:02:55.573Z,26.95
2022-11-09T01:04:56.963Z,26.90
2022-11-09T01:06:58.801Z,38.20
2022-11-09T01:09:00.216Z,35.10
2022-11-09T01:11:06.215Z,29.63
2022-11-09T01:13:07.622Z,29.15
2022-11-09T01:15:09.307Z,27.42
2022-11-09T01:17:11.110Z,25.17
2022-11-09T01:19:12.657Z,33.72
2022-11-09T01:21:15.419Z,37.05
2022-11-09T01:23:18.042Z,25.23
2022-11-09T01:25:19.748Z,32.72
2022-11-09T01:27:21.158Z,27.20
2022-11-09T01:29:22.771Z,42.83
2022-11-09T01:31:24.269Z,32.15
2022-11-09T01:33:25.950Z,29.73
2022-11-09T01:35:29.626Z,28.90
2022-11-09T01:39:44.128Z,24.52
2022-11-09T01:41:54.898Z,25.48
2022-11-09T01:44:08.521Z,25.17
2022-11-09T01:46:20.387Z,29.20
2022-11-09T01:48:39.853Z,26.70
2022-11-09T01:50:59.965Z,20.92
2022-11-09T01:53:11.963Z,29.83
2022-11-09T01:55:25.637Z,22.77
2022-11-09T01:59:52.477Z,30.42
2022-11-09T02:02:03.729Z,21.80
2022-11-09T02:04:16.043Z,31.27
2022-11-09T02:06:28.693Z,19.23
2022-11-09T02:08:40.110Z,17.92
2022-11-09T02:10:54.950Z,22.85
2022-11-09T02:12:58.854Z,21.65
2022-11-09T02:15:00.873Z,17.85
2022-11-09T02:17:02.402Z,27.73
2022-11-09T02:19:03.937Z,24.65
2022-11-09T02:21:05.737Z,19.27
2022-11-09T02:23:07.128Z,16.92
2022-11-09T02:25:09.101Z,25.25
2022-11-09T02:27:10.918Z,24.52
2022-11-09T02:29:14.202Z,23.00
2022-11-09T02:31:16.690Z,24.83
2022-11-09T02:33:18.493Z,16.95
2022-11-09T02:35:20.353Z,17.13
2022-11-09T02:37:30.992Z,23.00
2022-11-09T02:39:32.839Z,29.48
2022-11-09T02:41:35.690Z,18.25
2022-11-09T02:43:37.494Z,20.42
2022-11-09T02:45:38.952Z,23.60
2022-11-09T02:47:40.584Z,33.10
2022-11-09T02:49:42.446Z,32.85
2022-11-09T02:51:44.085Z,34.60
2022-11-09T02:53:45.562Z,23.30
2022-11-09T02:55:47.079Z,23.52
2022-11-09T02:57:48.809Z,26.42
2022-11-09T02:59:50.336Z,25.27
2022-11-09T03:01:52.005Z,27.20
2022-11-09T03:03:54.616Z,33.72
2022-11-09T03:05:56.306Z,35.47
2022-11-09T03:07:57.852Z,32.10
2022-11-09T03:09:59.345Z,29.02
2022-11-09T03:12:21.052Z,20.80
2022-11-09T03:14:22.756Z,20.90
2022-11-09T03:16:24.673Z,24.45
2022-11-09T03:18:26.251Z,26.73
2022-11-09T03:20:27.660Z,25.83
2022-11-09T03:22:29.174Z,21.60
2022-11-09T03:24:30.621Z,39.08
2022-11-09T03:26:33.210Z,24.02
2022-11-09T03:28:34.689Z,6.93
2022-11-09T03:30:36.211Z,13.20
2022-11-09T03:32:37.660Z,12.63
2022-11-09T03:34:39.068Z,12.10
2022-11-09T03:36:40.476Z,11.40
2022-11-09T03:38:41.929Z,8.13
2022-11-09T03:40:43.709Z,12.25
2022-11-09T03:42:46.363Z,3.40
2022-11-09T03:44:47.896Z,8.23
2022-11-09T03:46:49.311Z,10.55
2022-11-09T03:48:50.838Z,10.55
2022-11-09T03:50:52.297Z,11.68
2022-11-09T03:52:54.002Z,9.40
2022-11-09T03:54:55.504Z,10.90
2022-11-09T03:56:56.965Z,6.82
2022-11-09T03:58:58.451Z,12.90
2022-11-09T04:00:59.917Z,4.57
2022-11-09T04:03:01.633Z,12.02
2022-11-09T04:05:03.145Z,10.60
2022-11-09T04:07:04.753Z,7.82
2022-11-09T04:09:06.343Z,6.95
2022-11-09T04:11:08.083Z,4.85
2022-11-09T04:13:09.688Z,11.73
2022-11-09T04:15:11.464Z,6.05
2022-11-09T04:17:12.902Z,11.50
2022-11-09T04:19:14.357Z,6.57
2022-11-09T04:21:18.108Z,5.57
2022-11-09T04:23:23.056Z,6.75
2022-11-09T04:25:27.104Z,16.48
2022-11-09T04:27:29.962Z,9.05
2022-11-09T04:29:31.562Z,12.07
2022-11-09T04:31:33.290Z,6.95
2022-11-09T04:33:34.771Z,8.38
2022-11-09T04:35:36.394Z,9.32
2022-11-09T04:37:38.163Z,5.05
2022-11-09T04:39:39.583Z,9.45
2022-11-09T04:41:41.031Z,11.35
2022-11-09T04:43:44.775Z,12.30
2022-11-09T04:45:49.037Z,13.65
2022-11-09T04:47:53.276Z,12.70
2022-11-09T04:49:57.351Z,4.95
2022-11-09T04:52:01.549Z,9.63
2022-11-09T04:54:05.591Z,10.23
2022-11-09T04:58:13.633Z,11.23
2022-11-09T05:00:18.220Z,5.38
2022-11-09T05:02:22.574Z,18.25
2022-11-09T05:04:26.240Z,11.43
2022-11-09T05:06:33.131Z,9.38
2022-11-09T05:08:37.180Z,9.25
2022-11-09T05:10:40.709Z,10.75
2022-11-09T05:12:45.999Z,17.60
2022-11-09T05:14:50.369Z,12.70
2022-11-09T05:16:52.305Z,12.68
2022-11-09T05:18:53.922Z,23.27
2022-11-09T05:20:58.756Z,13.98
2022-11-09T05:23:19.586Z,14.85
2022-11-09T05:25:21.247Z,17.48
2022-11-09T05:27:22.925Z,9.13
2022-11-09T05:29:24.322Z,20.27
2022-11-09T05:31:26.668Z,15.38
2022-11-09T05:33:28.114Z,16.77
2022-11-09T05:35:29.535Z,8.25
2022-11-09T05:37:30.965Z,14.52
2022-11-09T05:39:32.368Z,21.45
2022-11-09T05:41:34.114Z,5.70
2022-11-09T05:43:35.533Z,13.30
2022-11-09T05:45:44.669Z,11.65
2022-11-09T05:47:46.373Z,13.13
2022-11-09T05:49:47.855Z,17.67
2022-11-09T05:51:49.576Z,15.10
2022-11-09T05:53:50.976Z,14.60
2022-11-09T05:55:52.422Z,14.27
2022-11-09T05:57:54.224Z,23.98
2022-11-09T05:59:55.865Z,9.57
2022-11-09T06:01:57.671Z,18.63
2022-11-09T06:03:59.110Z,11.77
2022-11-09T06:06:07.863Z,9.88
2022-11-09T06:08:14.119Z,7.78
2022-11-09T06:10:15.566Z,13.68
2022-11-09T06:12:16.935Z,9.52
2022-11-09T06:14:18.490Z,11.70
2022-11-09T06:16:20.161Z,3.05
2022-11-09T06:18:22.985Z,10.02
2022-11-09T06:20:25.045Z,9.48
2022-11-09T06:22:26.503Z,11.05
2022-11-09T06:24:27.918Z,10.93
2022-11-09T06:26:29.361Z,12.68
2022-11-09T06:28:30.769Z,4.88
2022-11-09T06:30:32.597Z,11.98
2022-11-09T06:32:34.002Z,5.95
2022-11-09T06:34:35.594Z,13.43
2022-11-09T06:36:37.250Z,15.77
2022-11-09T06:38:38.979Z,10.70
2022-11-09T06:40:40.386Z,8.57
2022-11-09T06:42:42.364Z,8.70
2022-11-09T06:44:43.960Z,15.80
2022-11-09T06:46:45.831Z,10.05
2022-11-09T06:48:51.852Z,23.13
2022-11-09T06:50:59.576Z,15.70
2022-11-09T06:53:02.615Z,11.77
2022-11-09T06:55:04.509Z,10.50
2022-11-09T06:57:06.121Z,14.55
2022-11-09T06:59:09.032Z,8.63
2022-11-09T07:01:11.253Z,9.98
2022-11-09T07:03:16.075Z,9.75
2022-11-09T07:05:17.968Z,13.23
2022-11-09T07:07:23.592Z,9.05
2022-11-09T07:09:28.162Z,9.27
2022-11-09T07:11:29.829Z,6.72
2022-11-09T07:13:31.411Z,12.27
2022-11-09T07:15:33.578Z,8.32
2022-11-09T07:17:37.092Z,7.30
2022-11-09T07:19:39.046Z,11.02
2022-11-09T07:21:40.712Z,19.20
2022-11-09T07:23:42.673Z,9.15
2022-11-09T07:25:44.310Z,4.22
2022-11-09T07:27:46.186Z,6.47
2022-11-09T07:29:47.788Z,12.05
2022-11-09T07:31:49.202Z,12.68
2022-11-09T07:33:50.848Z,10.43
2022-11-09T07:35:52.539Z,7.32
2022-11-09T07:37:54.036Z,7.97
2022-11-09T07:39:55.779Z,9.07
2022-11-09T07:41:57.265Z,9.10
2022-11-09T07:43:58.912Z,5.35
2022-11-09T07:46:06.693Z,6.45
2022-11-09T07:48:13.428Z,7.22
2022-11-09T07:50:26.243Z,18.55
2022-11-09T07:52:46.225Z,7.78
2022-11-09T07:55:00.523Z,11.63
2022-11-09T07:57:16.636Z,6.25
2022-11-09T07:59:31.212Z,7.13
2022-11-09T08:01:46.046Z,8.02
2022-11-09T08:04:00.989Z,8.25
2022-11-09T08:06:18.357Z,4.63
2022-11-09T08:08:38.464Z,8.32
2022-11-09T08:10:54.493Z,8.73
2022-11-09T08:13:13.060Z,7.57
2022-11-09T08:15:28.162Z,3.97
2022-11-09T08:17:42.258Z,5.38
2022-11-09T08:19:55.652Z,6.45
2022-11-09T08:22:03.392Z,7.85
2022-11-09T08:24:05.857Z,5.32
2022-11-09T08:26:07.813Z,10.30
2022-11-09T08:28:14.479Z,8.05
2022-11-09T08:30:18.049Z,9.10
2022-11-09T08:32:19.719Z,5.10
2022-11-09T08:34:21.227Z,4.93
2022-11-09T08:36:22.803Z,9.43
2022-11-09T08:38:24.566Z,5.63
2022-11-09T08:40:26.419Z,7.10
2022-11-09T08:42:28.027Z,7.82
2022-11-09T08:44:29.986Z,9.00
2022-11-09T08:46:31.714Z,4.93
2022-11-09T08:48:33.497Z,6.35
2022-11-09T08:50:35.934Z,8.32
2022-11-09T08:53:03.159Z,11.98
2022-11-09T08:55:06.165Z,9.13
2022-11-09T08:57:33.814Z,2.78
2022-11-09T09:00:00.489Z,5.97
2022-11-09T09:02:03.082Z,4.28
2022-11-09T09:04:04.961Z,5.22
2022-11-09T09:06:07.322Z,5.55
2022-11-09T09:08:11.690Z,8.10
2022-11-09T09:10:13.420Z,5.00
2022-11-09T09:12:15.400Z,8.32
2022-11-09T09:14:16.888Z,4.97
2022-11-09T09:16:18.508Z,6.10
2022-11-09T09:18:20.511Z,5.68
2022-11-09T09:20:22.190Z,8.15
2022-11-09T09:22:23.930Z,7.43
2022-11-09T09:24:25.522Z,10.52
2022-11-09T09:26:27.035Z,6.38
2022-11-09T09:28:28.515Z,3.42
2022-11-09T09:30:30.177Z,6.13
2022-11-09T09:32:32.027Z,8.52
2022-11-09T09:34:33.467Z,11.77
2022-11-09T09:36:35.549Z,6.47
2022-11-09T09:38:37.233Z,14.30
2022-11-09T09:40:42.425Z,9.68
2022-11-09T09:42:44.492Z,16.88
2022-11-09T09:44:48.940Z,10.60
2022-11-09T09:46:57.521Z,11.35
2022-11-09T09:49:03.610Z,13.40
2022-11-09T09:51:23.970Z,13.65
2022-11-09T09:53:43.560Z,11.80
2022-11-09T09:55:47.770Z,11.85
2022-11-09T09:57:56.934Z,9.07
2022-11-09T10:00:00.732Z,12.40
2022-11-09T10:02:02.301Z,10.25
2022-11-09T10:04:08.900Z,13.63
2022-11-09T10:06:13.587Z,8.93
2022-11-09T10:08:27.531Z,15.48
2022-11-09T10:10:37.373Z,13.00
2022-11-09T10:12:59.286Z,16.10
2022-11-09T10:15:05.639Z,15.50
2022-11-09T10:17:23.550Z,19.00
2022-11-09T10:19:33.259Z,10.63
2022-11-09T10:21:37.672Z,16.95
2022-11-09T10:23:39.739Z,19.77
2022-11-09T10:26:03.198Z,8.73
2022-11-09T10:28:12.978Z,23.33
2022-11-09T10:30:17.022Z,15.55
2022-11-09T10:32:20.042Z,16.90
2022-11-09T10:34:35.719Z,15.80
2022-11-09T10:36:43.789Z,18.58
2022-11-09T10:38:46.804Z,19.80
2022-11-09T10:40:58.743Z,16.35
2022-11-09T10:43:01.451Z,13.20
2022-11-09T10:45:12.813Z,17.98
2022-11-09T10:47:16.723Z,13.25
2022-11-09T10:51:35.839Z,13.43
2022-11-09T10:53:41.778Z,16.60
2022-11-09T10:56:11.163Z,12.80
2022-11-09T10:58:20.746Z,8.52
2022-11-09T11:00:29.045Z,11.65
2022-11-09T11:02:35.982Z,14.85
2022-11-09T11:04:38.074Z,10.50
2022-11-09T11:06:41.662Z,18.05
2022-11-09T11:08:47.067Z,26.05
2022-11-09T11:10:58.504Z,13.32
2022-11-09T11:13:10.250Z,15.25
2022-11-09T11:15:38.833Z,15.25
2022-11-09T11:17:51.890Z,7.13
2022-11-09T11:20:01.664Z,15.98
2022-11-09T11:22:19.742Z,9.63
2022-11-09T11:24:23.623Z,9.25
2022-11-09T11:26:30.792Z,11.75
2022-11-09T11:28:33.841Z,13.18
2022-11-09T11:30:42.633Z,15.02
2022-11-09T11:32:50.727Z,11.20
2022-11-09T11:35:00.440Z,8.05
2022-11-09T11:37:09.261Z,8.77
2022-11-09T11:39:17.990Z,7.25
2022-11-09T11:41:34.709Z,11.15
2022-11-09T11:43:45.375Z,9.18
2022-11-09T11:45:53.919Z,9.10
2022-11-09T11:48:14.024Z,7.97
2022-11-09T11:50:21.374Z,11.73
2022-11-09T11:52:43.710Z,4.82
2022-11-09T11:54:48.385Z,8.18
2022-11-09T11:56:58.707Z,9.13
2022-11-09T11:59:03.514Z,12.95
2022-11-09T12:01:28.071Z,8.40
2022-11-09T12:03:45.846Z,15.10
2022-11-09T12:05:50.555Z,11.95
2022-11-09T12:07:58.640Z,9.77
2022-11-09T12:10:00.078Z,9.93
2022-11-09T12:12:07.921Z,9.32
2022-11-09T12:14:18.337Z,8.50
2022-11-09T12:16:28.034Z,9.40
2022-11-09T12:18:29.779Z,14.63
2022-11-09T12:20:38.635Z,7.88
2022-11-09T12:22:56.083Z,9.98
2022-11-09T12:25:00.288Z,9.02
2022-11-09T12:27:35.818Z,8.35
2022-11-09T12:29:37.390Z,6.80
2022-11-09T12:31:41.956Z,9.75
2022-11-09T12:33:43.970Z,7.70
2022-11-09T12:35:55.455Z,9.43
2022-11-09T12:38:03.565Z,12.00
2022-11-09T12:40:12.200Z,11.60
2022-11-09T12:52:28.126Z,11.18
2022-11-09T12:54:30.240Z,8.65
2022-11-09T12:56:35.325Z,8.68
2022-11-09T12:58:38.270Z,13.45
2022-11-09T13:00:44.339Z,13.47
2022-11-09T13:02:54.169Z,13.90
2022-11-09T13:04:57.097Z,8.02
2022-11-09T13:07:19.359Z,10.32
2022-11-09T13:09:23.756Z,7.93
2022-11-09T13:11:44.599Z,8.02
2022-11-09T13:13:47.402Z,10.40
2022-11-09T13:16:06.976Z,17.05
2022-11-09T13:18:23.823Z,6.88
2022-11-09T13:20:53.831Z,4.13
2022-11-09T13:22:55.894Z,9.30
2022-11-09T13:25:01.889Z,6.63
2022-11-09T13:27:04.054Z,6.57
2022-11-09T13:29:10.036Z,12.23
2022-11-09T13:31:12.095Z,4.15
2022-11-09T13:33:19.252Z,7.32
2022-11-09T13:35:39.620Z,8.38
2022-11-09T13:37:42.155Z,7.95
2022-11-09T13:39:43.980Z,8.07
2022-11-09T13:41:45.874Z,12.15
2022-11-09T13:43:47.279Z,7.85
2022-11-09T13:45:54.441Z,10.18
2022-11-09T13:47:56.225Z,10.80
2022-11-09T13:49:57.826Z,8.07
2022-11-09T13:51:59.252Z,13.32
2022-11-09T13:54:05.318Z,7.70
2022-11-09T13:56:26.969Z,10.57
2022-11-09T13:58:35.279Z,13.10
2022-11-09T14:00:43.664Z,12.55
2022-11-09T14:03:05.344Z,11.52
2022-11-09T14:05:24.868Z,10.57
2022-11-09T14:07:31.002Z,10.40
2022-11-09T14:09:45.610Z,6.05
2022-11-09T14:12:21.888Z,10.57
2022-11-09T14:14:37.569Z,11.45
2022-11-09T14:16:48.075Z,12.07
2022-11-09T14:19:09.809Z,7.35
2022-11-09T14:21:19.026Z,15.93
2022-11-09T14:23:26.166Z,9.85
2022-11-09T14:25:32.035Z,15.32
2022-11-09T14:27:40.656Z,11.98
2022-11-09T14:29:55.970Z,10.93
2022-11-09T14:32:03.602Z,12.68
2022-11-09T14:34:06.382Z,9.90
2022-11-09T14:36:11.501Z,20.17
2022-11-09T14:38:19.184Z,8.73
2022-11-09T14:40:23.959Z,12.45
2022-11-09T14:42:25.495Z,10.63
2022-11-09T14:44:28.802Z,16.95
2022-11-09T14:46:31.544Z,9.77
2022-11-09T14:48:34.001Z,9.35
2022-11-09T14:50:37.138Z,12.35
2022-11-09T14:52:39.889Z,16.40
2022-11-09T14:54:44.772Z,7.97
2022-11-09T14:56:47.610Z,14.40
2022-11-09T14:58:49.945Z,12.95
2022-11-09T15:01:11.679Z,14.93
2022-11-09T15:03:22.480Z,12.23
2022-11-09T15:05:32.915Z,10.85
2022-11-09T15:07:35.206Z,11.65
2022-11-09T15:09:45.645Z,10.95
2022-11-09T15:11:47.454Z,12.80
2022-11-09T15:13:48.992Z,8.10
2022-11-09T15:15:51.161Z,10.00
2022-11-09T15:17:53.138Z,12.57
2022-11-09T15:19:56.537Z,13.60
2022-11-09T15:21:58.401Z,8.88
2022-11-09T15:24:14.388Z,7.68
2022-11-09T15:26:33.582Z,9.60
2022-11-09T15:28:44.163Z,16.98
2022-11-09T15:30:46.348Z,14.77
2022-11-09T15:32:48.577Z,12.60
2022-11-09T15:34:55.209Z,11.55
2022-11-09T15:36:56.662Z,9.63
2022-11-09T15:39:03.357Z,11.80
2022-11-09T15:41:13.273Z,14.10
2022-11-09T15:43:14.941Z,12.05
2022-11-09T15:45:42.362Z,20.50
2022-11-09T15:47:56.293Z,10.30
2022-11-09T15:49:59.205Z,16.08
2022-11-09T15:52:01.349Z,13.45
2022-11-09T15:54:03.136Z,16.30
2022-11-09T15:56:05.229Z,21.05
2022-11-09T15:58:07.065Z,14.10
2022-11-09T16:00:16.504Z,10.50
2022-11-09T16:02:21.105Z,9.90
2022-11-09T16:04:22.693Z,12.45
2022-11-09T16:06:24.431Z,12.82
2022-11-09T16:08:25.878Z,14.55
2022-11-09T16:10:29.346Z,14.88
2022-11-09T16:12:30.784Z,8.82
2022-11-09T16:14:32.798Z,11.73
2022-11-09T16:16:34.561Z,18.73
2022-11-09T16:18:36.105Z,18.63
2022-11-09T16:20:37.625Z,15.35
2022-11-09T16:22:39.390Z,8.43
2022-11-09T16:24:40.983Z,8.32
2022-11-09T16:26:42.632Z,11.52
2022-11-09T16:28:44.498Z,16.08
2022-11-09T16:30:47.060Z,11.88
2022-11-09T16:32:48.910Z,17.27
2022-11-09T16:35:08.736Z,11.68
2022-11-09T16:37:38.524Z,17.25
2022-11-09T16:39:40.295Z,16.30
2022-11-09T16:41:43.278Z,9.63
2022-11-09T16:43:45.571Z,19.05
2022-11-09T16:45:48.722Z,22.30
2022-11-09T16:47:52.177Z,18.08
2022-11-09T16:49:53.906Z,18.67
2022-11-09T16:51:55.298Z,15.73
2022-11-09T16:53:57.052Z,13.60
2022-11-09T16:55:58.509Z,12.15
2022-11-09T16:58:00.081Z,19.17
2022-11-09T17:00:01.676Z,22.15
2022-11-09T17:02:03.273Z,11.63
2022-11-09T17:04:05.146Z,19.75
2022-11-09T17:06:13.354Z,14.05
2022-11-09T17:08:23.988Z,10.55
2022-11-09T17:10:31.444Z,6.43
2022-11-09T17:12:36.441Z,7.72
2022-11-09T17:14:43.283Z,11.63
2022-11-09T17:16:48.472Z,12.10
2022-11-09T17:18:58.681Z,10.07
2022-11-09T17:21:02.629Z,14.00
2022-11-09T17:25:08.229Z,21.05
2022-11-09T17:27:17.031Z,11.30
2022-11-09T17:29:24.255Z,10.73
2022-11-09T17:31:32.760Z,16.55
2022-11-09T17:33:42.046Z,15.25
2022-11-09T17:35:46.727Z,12.50
2022-11-09T17:37:53.157Z,11.30
2022-11-09T17:39:56.451Z,11.80
2022-11-09T17:41:58.257Z,16.55
2022-11-09T17:44:00.571Z,15.05
2022-11-09T17:46:03.613Z,17.73
2022-11-09T17:48:05.367Z,16.10
2022-11-09T17:50:07.248Z,18.77
2022-11-09T17:52:08.813Z,14.35
2022-11-09T17:54:10.745Z,24.23
2022-11-09T17:56:12.605Z,17.88
2022-11-09T17:58:14.689Z,16.92
2022-11-09T18:00:16.865Z,15.40
2022-11-09T18:02:19.108Z,30.00
2022-11-09T18:04:20.556Z,21.02
2022-11-09T18:06:23.769Z,23.13
2022-11-09T18:08:25.358Z,20.88
2022-11-09T18:10:27.351Z,20.02
2022-11-09T18:12:29.121Z,18.52
2022-11-09T18:14:30.741Z,20.50
2022-11-09T18:16:32.295Z,16.15
2022-11-09T18:18:34.337Z,15.43
2022-11-09T18:20:37.955Z,20.75
2022-11-09T18:22:39.495Z,14.57
2022-11-09T18:24:40.969Z,16.52
2022-11-09T18:26:42.428Z,10.95
2022-11-09T18:28:44.009Z,18.80
2022-11-09T18:30:45.411Z,20.83
2022-11-09T18:32:46.832Z,21.77
2022-11-09T18:34:48.266Z,20.27
2022-11-09T18:36:50.017Z,17.63
2022-11-09T18:38:53.992Z,15.32
2022-11-09T18:41:06.045Z,17.05
2022-11-09T18:43:08.989Z,21.17
2022-11-09T18:45:10.857Z,14.18
2022-11-09T18:47:13.726Z,23.13
2022-11-09T18:49:15.251Z,12.40
2022-11-09T18:51:17.049Z,23.45
2022-11-09T18:53:20.302Z,18.33
2022-11-09T18:55:21.879Z,18.33
2022-11-09T18:57:23.662Z,10.15
2022-11-09T18:59:25.641Z,8.27
2022-11-09T19:01:27.536Z,12.85
2022-11-09T19:03:29.810Z,15.32
2022-11-09T19:05:31.461Z,23.00
2022-11-09T19:07:33.371Z,19.55
2022-11-09T19:09:35.649Z,12.10
2022-11-09T19:11:37.743Z,11.65
2022-11-09T19:13:39.271Z,13.90
2022-11-09T19:15:42.502Z,14.15
2022-11-09T19:17:43.983Z,17.23
2022-11-09T19:19:45.679Z,15.55
2022-11-09T19:21:47.179Z,13.45
2022-11-09T19:23:48.708Z,13.27
2022-11-09T19:25:50.630Z,14.65
2022-11-09T19:27:53.134Z,10.98
2022-11-09T19:29:55.351Z,17.63
2022-11-09T19:31:56.839Z,14.35
2022-11-09T19:33:58.418Z,15.10
2022-11-09T19:36:27.996Z,22.13
2022-11-09T19:38:21.943Z,20.58
2022-11-09T19:40:23.590Z,19.50
2022-11-09T19:42:25.405Z,17.52
2022-11-09T19:44:27.880Z,13.68
2022-11-09T19:46:33.239Z,13.50
2022-11-09T19:48:35.193Z,19.60
2022-11-09T19:50:36.670Z,17.63
2022-11-09T19:52:38.883Z,25.92
2022-11-09T19:54:42.997Z,27.05
2022-11-09T19:58:50.316Z,26.67
2022-11-09T20:00:51.812Z,14.65
2022-11-09T20:02:54.898Z,23.88
2022-11-09T20:04:56.626Z,18.23
2022-11-09T20:06:58.198Z,23.00
2022-11-09T20:09:00.471Z,19.88
2022-11-09T20:11:09.679Z,18.02
2022-11-09T20:13:18.783Z,20.55
2022-11-09T20:15:27.443Z,28.13
2022-11-09T20:17:31.931Z,18.33
2022-11-09T20:19:34.263Z,26.02
2022-11-09T20:21:37.803Z,21.13
2022-11-09T20:23:42.394Z,25.60
2022-11-09T20:25:47.554Z,21.38
2022-11-09T20:27:52.723Z,22.90
2022-11-09T20:29:56.564Z,23.20
2022-11-09T20:32:00.427Z,20.48
2022-11-09T20:36:07.120Z,28.50
2022-11-09T20:38:11.381Z,22.45
2022-11-09T20:40:15.554Z,16.77
2022-11-09T20:42:19.021Z,19.80
2022-11-09T20:44:23.627Z,11.85
2022-11-09T20:46:31.230Z,27.17
2022-11-09T20:48:53.538Z,17.70
2022-11-09T20:51:04.558Z,23.27
2022-11-09T20:53:08.272Z,16.65
2022-11-09T20:55:10.294Z,16.52
2022-11-09T20:57:11.832Z,16.08
2022-11-09T20:59:13.346Z,18.98
2022-11-09T21:01:15.158Z,18.13
2022-11-09T21:03:16.952Z,27.08
2022-11-09T21:05:19.081Z,22.30
2022-11-09T21:07:20.573Z,22.13
2022-11-09T21:09:22.692Z,29.90
2022-11-09T21:11:28.565Z,27.80
2022-11-09T21:13:31.759Z,28.15
2022-11-09T21:15:33.458Z,19.70
2022-11-09T21:17:35.023Z,38.80
2022-11-09T21:19:36.495Z,33.45
2022-11-09T21:21:37.919Z,33.13
2022-11-09T21:23:58.487Z,28.10
2022-11-09T21:26:18.648Z,32.63
2022-11-09T21:28:38.573Z,29.10
2022-11-09T21:30:40.183Z,27.30
2022-11-09T21:32:41.626Z,23.80
2022-11-09T21:34:43.609Z,28.75
2022-11-09T21:36:45.290Z,36.72
2022-11-09T21:38:46.759Z,23.85
2022-11-09T21:40:48.641Z,23.17
2022-11-09T21:42:50.286Z,29.50
2022-11-09T21:44:52.097Z,30.20
2022-11-09T21:46:53.904Z,24.55
2022-11-09T21:48:56.478Z,21.83
2022-11-09T21:50:57.985Z,32.35
2022-11-09T21:52:59.918Z,24.85
2022-11-09T21:55:03.977Z,24.90
2022-11-09T21:57:05.405Z,14.57
2022-11-09T21:59:07.674Z,25.98
2022-11-09T22:01:12.681Z,27.10
2022-11-09T22:03:14.283Z,19.90
2022-11-09T22:05:20.366Z,20.23
2022-11-09T22:07:24.390Z,13.27
2022-11-09T22:09:25.918Z,19.17
2022-11-09T22:11:46.295Z,16.13
2022-11-09T22:14:06.662Z,15.07
2022-11-09T22:16:08.172Z,17.38
2022-11-09T22:18:29.692Z,19.17
2022-11-09T22:21:00.401Z,18.90
2022-11-09T22:23:05.048Z,10.55
2022-11-09T22:25:06.871Z,11.60
2022-11-09T22:27:08.938Z,11.35
2022-11-09T22:29:10.405Z,19.77
2022-11-09T22:31:12.025Z,11.85
2022-11-09T22:33:15.580Z,14.80
2022-11-09T22:35:17.029Z,7.97
2022-11-09T22:37:18.832Z,11.65
2022-11-09T22:39:20.408Z,10.63
2022-11-09T22:41:24.459Z,14.38
2022-11-09T22:43:25.907Z,22.20
2022-11-09T22:45:27.384Z,15.00
2022-11-09T22:47:28.859Z,12.90
2022-11-09T22:49:30.309Z,12.93
2022-11-09T22:51:31.769Z,14.38
2022-11-09T22:53:33.679Z,16.77
2022-11-09T22:55:35.147Z,11.63
2022-11-09T22:57:37.883Z,11.80
2022-11-09T22:59:39.542Z,12.10
2022-11-09T23:01:40.997Z,11.18
2022-11-09T23:03:42.857Z,18.40
2022-11-09T23:05:44.971Z,16.90
2022-11-09T23:07:46.645Z,24.55
2022-11-09T23:09:48.217Z,29.67
2022-11-09T23:11:49.704Z,33.60
2022-11-09T23:13:51.960Z,26.45
2022-11-09T23:15:57.187Z,40.75
2022-11-09T23:18:23.321Z,20.88
2022-11-09T23:20:34.267Z,31.98
2022-11-09T23:22:38.446Z,22.10
2022-11-09T23:25:00.053Z,29.20
2022-11-09T23:27:04.566Z,23.27
2022-11-09T23:29:09.655Z,24.85
2022-11-09T23:31:15.665Z,17.40
2022-11-09T23:33:19.916Z,22.48
2022-11-09T23:35:24.658Z,19.48
2022-11-09T23:37:29.163Z,17.45
2022-11-09T23:41:36.741Z,13.50
2022-11-09T23:43:41.460Z,14.88
2022-11-09T23:45:46.277Z,14.85
2022-11-09T23:47:50.449Z,21.10
2022-11-09T23:49:53.920Z,8.70
2022-11-09T23:51:59.108Z,22.63
2022-11-09T23:54:01.938Z,29.30
2022-11-09T23:56:10.942Z,25.10
2022-11-09T23:58:13.246Z,20.20
